Time;durP1;ratioP1;P1;durP2;ratioP2;P2;SDS_P1;SDS_P2;PMS_P1;PMS_P2;Temp;Humidity;BMP_temperature;BMP_pressure;BME280_temperature;BME280_humidity;BME280_pressure;Samples;Min_cycle;Max_cycle;Signal;HPM_P1;HPM_P2
2022/08/11 00:02:33;;;;;;;0.00;0.00;;;17.70;99.90;;;;;;5115992;28;20047;-82
2022/08/11 00:05:06;;;;;;;0.00;0.00;;;17.70;99.90;;;;;;5098368;28;20043;-82
2022/08/11 00:07:32;;;;;;;0.00;0.00;;;17.70;99.90;;;;;;5098060;28;20135;-82
2022/08/11 00:09:59;;;;;;;0.03;0.00;;;17.70;99.90;;;;;;5115118;28;20086;-82
2022/08/11 00:12:25;;;;;;;0.00;0.00;;;17.60;99.90;;;;;;5098107;28;20047;-82
2022/08/11 00:14:59;;;;;;;0.00;0.00;;;17.60;99.90;;;;;;5114669;28;20391;-81
2022/08/11 00:17:31;;;;;;;0.00;0.00;;;17.50;99.90;;;;;;5097773;28;20407;-82
2022/08/11 00:20:08;;;;;;;0.25;0.00;;;17.50;99.90;;;;;;5114861;28;20538;-81
2022/08/11 00:22:36;;;;;;;0.00;0.00;;;17.40;99.90;;;;;;5097925;28;20111;-82
2022/08/11 00:25:17;;;;;;;0.00;0.00;;;17.40;99.90;;;;;;5114895;28;20043;-82
2022/08/11 00:27:43;;;;;;;0.00;0.00;;;17.40;99.90;;;;;;5095920;28;20414;-81
2022/08/11 00:30:10;;;;;;;0.17;0.17;;;17.40;99.90;;;;;;5112395;28;20044;-81
2022/08/11 00:32:38;;;;;;;0.00;0.00;;;17.40;99.90;;;;;;5096104;28;20039;-81
2022/08/11 00:35:07;;;;;;;0.00;0.00;;;17.30;99.90;;;;;;5113361;28;20090;-81
2022/08/11 00:37:33;;;;;;;0.00;0.00;;;17.30;99.90;;;;;;5113676;28;20415;-81
2022/08/11 00:40:01;;;;;;;2.03;0.10;;;17.30;99.90;;;;;;5095902;28;20138;-82
2022/08/11 00:42:45;;;;;;;0.20;0.20;;;17.20;99.90;;;;;;5113080;28;20177;-81
2022/08/11 00:45:30;;;;;;;0.00;0.00;;;17.20;99.90;;;;;;5114182;28;20039;-81
2022/08/11 00:48:02;;;;;;;0.00;0.00;;;17.20;99.90;;;;;;5113871;28;20051;-81
2022/08/11 00:50:45;;;;;;;0.00;0.00;;;17.20;99.90;;;;;;5114277;28;20483;-81
2022/08/11 00:54:01;;;;;;;0.00;0.00;;;17.20;99.90;;;;;;5114376;28;20115;-81
2022/08/11 00:56:48;;;;;;;0.00;0.00;;;17.10;99.90;;;;;;5114227;28;20082;-81
2022/08/11 01:00:01;;;;;;;0.00;0.00;;;17.10;99.90;;;;;;5114506;28;20064;-82
2022/08/11 01:02:51;;;;;;;0.00;0.00;;;17.10;99.90;;;;;;5114020;28;20090;-81
2022/08/11 01:05:59;;;;;;;0.00;0.00;;;17.00;99.90;;;;;;5113892;28;20048;-81
2022/08/11 01:08:55;;;;;;;0.00;0.00;;;17.00;99.90;;;;;;5113535;28;20050;-82
2022/08/11 01:11:49;;;;;;;0.00;0.00;;;17.00;99.90;;;;;;5112946;28;20134;-81
2022/08/11 01:14:28;;;;;;;0.07;0.03;;;16.90;99.90;;;;;;5114136;28;20043;-82
2022/08/11 01:17:31;;;;;;;0.00;0.00;;;16.80;99.90;;;;;;5113954;28;20130;-81
2022/08/11 01:20:30;;;;;;;0.00;0.00;;;16.80;99.90;;;;;;5097540;28;20094;-81
2022/08/11 01:23:19;;;;;;;0.00;0.00;;;16.70;99.90;;;;;;5113958;28;20135;-81
2022/08/11 01:25:47;;;;;;;0.00;0.00;;;16.70;99.90;;;;;;5114377;28;20044;-82
2022/08/11 01:28:54;;;;;;;0.00;0.00;;;16.70;99.90;;;;;;5113768;28;20498;-82
2022/08/11 01:31:57;;;;;;;0.00;0.00;;;16.70;99.90;;;;;;5096394;28;20064;-81
2022/08/11 01:34:26;;;;;;;0.00;0.00;;;16.60;99.90;;;;;;5113692;28;20062;-81
2022/08/11 01:37:30;;;;;;;0.00;0.00;;;16.60;99.90;;;;;;5113793;28;20051;-82
2022/08/11 01:40:29;;;;;;;0.00;0.00;;;16.60;99.90;;;;;;5109783;28;20443;-81
2022/08/11 01:46:25;;;;;;;0.00;0.00;;;16.60;99.90;;;;;;5113658;28;20052;-81
2022/08/11 01:49:03;;;;;;;0.00;0.00;;;16.50;99.90;;;;;;5113285;28;20050;-81
2022/08/11 01:51:53;;;;;;;0.00;0.00;;;16.50;99.90;;;;;;5096218;28;20058;-81
2022/08/11 01:54:31;;;;;;;0.30;0.00;;;16.50;99.90;;;;;;5096075;28;20059;-81
2022/08/11 01:57:24;;;;;;;0.00;0.00;;;16.40;99.90;;;;;;5114236;28;20052;-81
2022/08/11 02:00:01;;;;;;;0.00;0.00;;;16.40;99.90;;;;;;5113876;28;20051;-81
2022/08/11 02:02:52;;;;;;;0.00;0.00;;;16.40;99.90;;;;;;5113758;28;20056;-81
2022/08/11 02:05:59;;;;;;;0.00;0.00;;;16.30;99.90;;;;;;5097092;28;20047;-81
2022/08/11 02:08:43;;;;;;;0.00;0.00;;;16.30;99.90;;;;;;5113639;28;20052;-81
2022/08/11 02:11:41;;;;;;;0.00;0.00;;;16.20;99.90;;;;;;5097461;28;20073;-81
2022/08/11 02:14:26;;;;;;;0.65;0.43;;;16.20;99.90;;;;;;5037291;28;20049;-81
2022/08/11 02:17:04;;;;;;;0.00;0.00;;;16.20;99.90;;;;;;5039154;28;20555;-82
2022/08/11 02:26:09;;;;;;;0.00;0.00;;;16.10;99.90;;;;;;5000070;28;20050;-81
2022/08/11 02:28:43;;;;;;;0.30;0.00;;;16.10;99.90;;;;;;4999571;28;20057;-81
2022/08/11 02:34:57;;;;;;;0.00;0.00;;;16.10;99.90;;;;;;5000100;28;20062;-81
2022/08/11 02:37:32;;;;;;;0.00;0.00;;;16.00;99.90;;;;;;4983440;28;20149;-81
2022/08/11 02:39:57;;;;;;;0.00;0.00;;;16.00;99.90;;;;;;4999382;28;20087;-81
2022/08/11 02:42:39;;;;;;;0.10;0.00;;;16.00;99.90;;;;;;4983254;28;20093;-81
2022/08/11 02:45:23;;;;;;;1.00;0.00;;;16.00;99.90;;;;;;4983377;28;20049;-81
2022/08/11 02:51:09;;;;;;;0.65;0.20;;;16.00;99.90;;;;;;5057819;28;20450;-81
2022/08/11 02:53:43;;;;;;;0.00;0.00;;;15.90;99.90;;;;;;5064826;28;20108;-81
2022/08/11 02:56:43;;;;;;;0.00;0.00;;;16.00;99.90;;;;;;5099524;28;20052;-81
2022/08/11 03:02:18;;;;;;;0.00;0.00;;;15.90;99.90;;;;;;5116949;28;20131;-81
2022/08/11 03:05:19;;;;;;;0.00;0.00;;;15.90;99.90;;;;;;5099696;28;20100;-81
2022/08/11 03:08:07;;;;;;;0.00;0.00;;;15.80;99.90;;;;;;5100100;28;20538;-81
2022/08/11 03:16:50;;;;;;;0.00;0.00;;;15.80;99.90;;;;;;5038264;28;20107;-81
2022/08/11 03:19:34;;;;;;;0.15;0.15;;;15.80;99.90;;;;;;5038283;28;20057;-81
2022/08/11 03:22:23;;;;;;;0.00;0.00;;;15.70;99.90;;;;;;5021493;28;20049;-81
2022/08/11 03:25:18;;;;;;;0.00;0.00;;;15.70;99.90;;;;;;5037046;28;20113;-81
2022/08/11 03:28:02;;;;;;;0.00;0.00;;;15.60;99.90;;;;;;5038260;28;20140;-81
2022/08/11 03:30:55;;;;;;;0.00;0.00;;;15.60;99.90;;;;;;5037804;28;20052;-81
2022/08/11 03:36:35;;;;;;;0.00;0.00;;;15.60;99.90;;;;;;5037716;28;20190;-81
2022/08/11 03:39:04;;;;;;;0.00;0.00;;;15.50;99.90;;;;;;5037994;28;20053;-81
2022/08/11 03:41:48;;;;;;;0.00;0.00;;;15.50;99.90;;;;;;5021276;28;20562;-81
2022/08/11 03:44:59;;;;;;;0.00;0.00;;;15.40;99.90;;;;;;5037812;28;20168;-81
2022/08/11 03:47:31;;;;;;;0.00;0.00;;;15.40;99.90;;;;;;4979060;28;20069;-81
2022/08/11 03:49:59;;;;;;;0.00;0.00;;;15.40;99.90;;;;;;4988931;28;20084;-81
2022/08/11 03:52:33;;;;;;;0.00;0.00;;;15.40;99.90;;;;;;5037490;28;20045;-81
2022/08/11 03:55:22;;;;;;;0.00;0.00;;;15.30;99.90;;;;;;5020135;28;20522;-81
2022/08/11 03:58:03;;;;;;;0.63;0.30;;;15.30;99.90;;;;;;5037696;28;20140;-81
2022/08/11 04:01:02;;;;;;;0.00;0.00;;;15.30;99.90;;;;;;5037365;28;20136;-81
2022/08/11 04:03:58;;;;;;;0.55;0.30;;;15.30;99.90;;;;;;5020666;28;20140;-81
2022/08/11 04:06:48;;;;;;;0.00;0.00;;;15.30;99.90;;;;;;5037901;28;20049;-81
2022/08/11 04:09:45;;;;;;;0.00;0.00;;;15.30;99.90;;;;;;5037339;28;20045;-81
2022/08/11 04:12:34;;;;;;;0.00;0.00;;;15.30;99.90;;;;;;5020375;28;20147;-81
2022/08/11 04:18:24;;;;;;;0.00;0.00;;;15.20;99.90;;;;;;5036037;28;20060;-81
2022/08/11 04:21:25;;;;;;;0.00;0.00;;;15.20;99.90;;;;;;5036184;28;20049;-81
2022/08/11 04:24:30;;;;;;;1.00;0.03;;;15.20;99.90;;;;;;5084114;28;20100;-81
2022/08/11 04:27:14;;;;;;;0.00;0.00;;;15.20;99.90;;;;;;5098378;28;20597;-81
2022/08/11 04:29:49;;;;;;;0.00;0.00;;;15.20;99.90;;;;;;5115088;28;20489;-81
2022/08/11 04:32:52;;;;;;;0.00;0.00;;;15.20;99.90;;;;;;5114754;28;20131;-81
2022/08/11 04:35:49;;;;;;;0.00;0.00;;;15.20;99.90;;;;;;5114346;28;20071;-81
2022/08/11 04:38:57;;;;;;;0.10;0.10;;;15.30;99.90;;;;;;5097962;28;20054;-81
2022/08/11 04:45:01;;;;;;;0.00;0.00;;;15.30;99.90;;;;;;5114855;28;20479;-81
2022/08/11 05:03:24;;;;;;;0.00;0.00;;;15.50;99.90;;;;;;5114272;28;20052;-81
2022/08/11 05:06:08;;;;;;;0.00;0.00;;;15.50;99.90;;;;;;5097211;28;20102;-80
2022/08/11 05:08:42;;;;;;;0.00;0.00;;;15.60;99.90;;;;;;5097151;28;20058;-81
2022/08/11 05:11:14;;;;;;;;;;;15.60;99.90;;;;;;5114718;28;20039;-81
2022/08/11 05:36:44;;;;;;;0.00;0.00;;;16.00;99.90;;;;;;5114041;28;20111;-80
2022/08/11 05:58:42;;;;;;;0.00;0.00;;;16.90;99.90;;;;;;5117941;28;20475;-81
2022/08/11 06:01:14;;;;;;;0.00;0.00;;;16.90;99.90;;;;;;5100777;28;20164;-81
2022/08/11 06:06:29;;;;;;;0.05;0.05;;;16.90;99.90;;;;;;5117838;28;20059;-81
2022/08/11 06:08:58;;;;;;;0.00;0.00;;;17.00;99.90;;;;;;5117202;28;20054;-81
2022/08/11 06:11:25;;;;;;;0.00;0.00;;;17.00;99.90;;;;;;5117661;28;20071;-81
2022/08/11 06:13:51;;;;;;;0.00;0.00;;;17.20;99.90;;;;;;5100360;28;20052;-81
2022/08/11 06:16:24;;;;;;;0.00;0.00;;;17.20;99.90;;;;;;5100431;28;20055;-81
2022/08/11 06:18:50;;;;;;;0.55;0.25;;;17.30;99.90;;;;;;5100649;28;20391;-81
2022/08/11 06:21:17;;;;;;;0.00;0.00;;;17.40;99.90;;;;;;5117685;28;20036;-81
2022/08/11 06:23:44;;;;;;;0.00;0.00;;;17.40;99.90;;;;;;5100290;28;20091;-82
2022/08/11 06:26:12;;;;;;;0.00;0.00;;;17.60;99.90;;;;;;5117516;28;20078;-81
2022/08/11 06:28:43;;;;;;;0.00;0.00;;;17.70;99.90;;;;;;5100339;28;20051;-81
2022/08/11 06:31:15;;;;;;;0.00;0.00;;;17.80;99.90;;;;;;5100149;28;20055;-81
2022/08/11 06:34:07;;;;;;;0.00;0.00;;;18.00;99.90;;;;;;5099854;28;20091;-81
2022/08/11 06:37:30;;;;;;;0.00;0.00;;;18.10;99.90;;;;;;5022887;28;20057;-81
2022/08/11 06:40:11;;;;;;;0.00;0.00;;;18.20;99.90;;;;;;4979568;28;20053;-81
2022/08/11 06:42:50;;;;;;;0.05;0.00;;;18.20;99.90;;;;;;4963809;28;20554;-81
2022/08/11 06:45:36;;;;;;;2.75;0.38;;;18.30;99.90;;;;;;4980150;28;20058;-81
2022/08/11 06:48:05;;;;;;;0.00;0.00;;;18.40;99.90;;;;;;4979032;28;20149;-81
2022/08/11 06:53:19;;;;;;;0.00;0.00;;;18.50;99.90;;;;;;4979846;28;20374;-81
2022/08/11 07:01:50;;;;;;;0.00;0.00;;;19.20;99.90;;;;;;4979495;28;20158;-81
2022/08/11 07:04:43;;;;;;;0.10;0.08;;;19.70;99.90;;;;;;4979075;28;20498;-82
2022/08/11 07:16:22;;;;;;;0.00;0.00;;;22.10;99.90;;;;;;5116228;28;20048;-82
2022/08/11 07:30:08;;;;;;;0.00;0.00;;;23.40;99.90;;;;;;5116444;28;20368;-82
2022/08/11 07:32:45;;;;;;;0.00;0.00;;;23.40;99.90;;;;;;5098655;28;20043;-81
2022/08/11 07:35:15;;;;;;;0.00;0.00;;;23.30;99.90;;;;;;5115947;28;20052;-82
2022/08/11 07:37:49;;;;;;;0.00;0.00;;;23.10;99.90;;;;;;5115549;28;20052;-86
2022/08/11 07:40:21;;;;;;;0.08;0.08;;;23.10;99.90;;;;;;5098724;28;20054;-80
2022/08/11 07:42:51;;;;;;;0.00;0.00;;;23.00;99.90;;;;;;5116838;28;20118;-80
2022/08/11 07:53:36;;;;;;;0.00;0.00;;;23.00;99.90;;;;;;5115842;28;20052;-81
2022/08/11 07:56:05;;;;;;;0.10;0.00;;;23.10;99.90;;;;;;5098439;28;20058;-80
2022/08/11 08:17:58;;;;;;;0.00;0.00;;;23.40;99.90;;;;;;5115505;28;19920;-82
2022/08/11 08:20:50;;;;;;;0.00;0.00;;;23.50;99.90;;;;;;5097491;28;20095;-82
2022/08/11 08:23:34;;;;;;;0.00;0.00;;;23.50;99.90;;;;;;5111351;28;20063;-82
2022/08/11 08:26:03;;;;;;;0.00;0.00;;;23.60;99.90;;;;;;5097429;28;20051;-81
2022/08/11 08:28:32;;;;;;;0.00;0.00;;;23.60;99.90;;;;;;5098386;28;20170;-81
2022/08/11 08:30:58;;;;;;;0.00;0.00;;;23.80;99.90;;;;;;5097769;28;20079;-82
2022/08/11 08:33:29;;;;;;;0.00;0.00;;;23.80;99.90;;;;;;5114380;28;20462;-82
2022/08/11 08:36:10;;;;;;;0.00;0.00;;;23.90;99.90;;;;;;5114347;28;20488;-82
2022/08/11 08:38:40;;;;;;;0.00;0.00;;;24.00;99.00;;;;;;5097439;28;20060;-82
2022/08/11 08:41:07;;;;;;;0.17;0.00;;;24.10;99.90;;;;;;5097088;28;20490;-82
2022/08/11 08:43:35;;;;;;;0.00;0.00;;;24.20;99.90;;;;;;5114454;28;20089;-82
2022/08/11 08:46:04;;;;;;;0.20;0.00;;;24.30;99.90;;;;;;5097041;28;20056;-81
2022/08/11 08:48:32;;;;;;;0.00;0.00;;;24.40;99.10;;;;;;5097093;28;20544;-81
2022/08/11 08:53:52;;;;;;;0.08;0.00;;;24.70;97.50;;;;;;5113864;28;20465;-81
2022/08/11 08:56:24;;;;;;;0.00;0.00;;;24.80;97.20;;;;;;5114141;28;20044;-82
2022/08/11 08:58:50;;;;;;;0.00;0.00;;;24.90;96.70;;;;;;5114154;28;20525;-81
2022/08/11 09:01:21;;;;;;;0.00;0.00;;;25.00;97.30;;;;;;5114603;28;20514;-81
2022/08/11 09:03:47;;;;;;;0.00;0.00;;;25.10;96.70;;;;;;5114161;28;20444;-82
2022/08/11 09:06:15;;;;;;;0.00;0.00;;;25.20;96.30;;;;;;5113896;28;20059;-82
2022/08/11 09:08:43;;;;;;;0.00;0.00;;;25.30;96.20;;;;;;5097202;28;20043;-81
2022/08/11 09:13:55;;;;;;;0.00;0.00;;;25.60;93.10;;;;;;5112998;28;20051;-83
2022/08/11 09:16:23;;;;;;;0.00;0.00;;;25.70;94.20;;;;;;5096703;28;20059;-82
2022/08/11 09:18:50;;;;;;;0.00;0.00;;;25.90;95.40;;;;;;5096718;28;20089;-83
2022/08/11 09:21:19;;;;;;;0.00;0.00;;;26.00;91.50;;;;;;5113674;28;20044;-82
2022/08/11 09:29:15;;;;;;;;;;;26.40;91.40;;;;;;5114799;28;20104;-83
2022/08/11 09:31:41;;;;;;;0.00;0.00;;;26.50;91.30;;;;;;5096610;28;20009;-83
2022/08/11 09:34:09;;;;;;;0.00;0.00;;;26.60;87.50;;;;;;5096132;28;20483;-83
2022/08/11 09:42:06;;;;;;;0.00;0.00;;;26.90;83.80;;;;;;5113822;28;20048;-83
2022/08/11 09:44:49;;;;;;;0.00;0.00;;;27.10;83.50;;;;;;5113379;28;20407;-84
2022/08/11 09:47:22;;;;;;;0.00;0.00;;;27.30;83.10;;;;;;5095813;28;20080;-83
2022/08/11 09:49:51;;;;;;;0.00;0.00;;;27.40;79.40;;;;;;5113329;28;20122;-83
2022/08/11 09:52:18;;;;;;;0.00;0.00;;;27.50;81.80;;;;;;5113138;28;20138;-83
2022/08/11 09:54:47;;;;;;;0.00;0.00;;;27.60;77.00;;;;;;5112747;28;20067;-83
2022/08/11 09:59:57;;;;;;;0.00;0.00;;;27.80;75.40;;;;;;5113448;28;20051;-83
2022/08/11 10:02:27;;;;;;;0.00;0.00;;;28.00;77.20;;;;;;5113445;28;20047;-83
2022/08/11 10:07:00;;;;;;;0.38;0.08;;;28.10;75.20;;;;;;5113733;28;20048;-83
2022/08/11 10:07:49;;;;;;;0.00;0.00;;;28.10;74.10;;;;;;5113137;28;20059;-83
2022/08/11 10:10:21;;;;;;;0.00;0.00;;;28.20;74.20;;;;;;5112723;28;20529;-83
2022/08/11 10:12:56;;;;;;;0.00;0.00;;;28.30;69.40;;;;;;5113427;28;20078;-83
2022/08/11 10:15:38;;;;;;;0.00;0.00;;;28.40;72.30;;;;;;5096509;28;20189;-84
2022/08/11 10:21:05;;;;;;;0.00;0.00;;;28.60;71.10;;;;;;5112922;28;20104;-83
2022/08/11 10:33:58;;;;;;;0.00;0.00;;;29.00;67.40;;;;;;5113862;28;20044;-84
2022/08/11 10:34:39;;;;;;;0.00;0.00;;;29.20;69.40;;;;;;5114518;28;20051;-81
2022/08/11 10:37:06;;;;;;;0.00;0.00;;;29.30;66.00;;;;;;5099401;28;20070;-81
2022/08/11 10:39:33;;;;;;;0.00;0.00;;;29.30;62.80;;;;;;5116292;28;20479;-81
2022/08/11 10:44:46;;;;;;;0.03;0.00;;;29.50;64.10;;;;;;5116161;28;20472;-81
2022/08/11 11:01:02;;;;;;;0.00;0.00;;;30.00;61.20;;;;;;5117088;28;20494;-81
2022/08/11 11:03:29;;;;;;;0.00;0.00;;;30.20;62.90;;;;;;5116761;28;20071;-81
2022/08/11 11:06:34;;;;;;;0.00;0.00;;;30.30;61.00;;;;;;5099915;28;20047;-83
2022/08/11 11:09:10;;;;;;;;;;;30.50;58.30;;;;;;5021565;28;20504;-82
2022/08/11 11:20:11;;;;;;;0.00;0.00;;;30.90;59.10;;;;;;5018376;28;20145;-81
2022/08/11 11:22:37;;;;;;;0.10;0.10;;;31.00;59.00;;;;;;5017947;28;20525;-84
2022/08/11 11:25:24;;;;;;;0.00;0.00;;;31.00;55.00;;;;;;5022606;28;20090;-81
2022/08/11 11:28:23;;;;;;;0.00;0.00;;;31.20;57.00;;;;;;5037543;28;20544;-82
2022/08/11 11:31:21;;;;;;;0.00;0.00;;;31.20;57.50;;;;;;5026563;28;20065;-82
2022/08/11 11:34:30;;;;;;;0.00;0.00;;;31.30;56.30;;;;;;5018277;28;20042;-83
2022/08/11 11:36:58;;;;;;;0.00;0.00;;;31.20;55.00;;;;;;4958560;28;20046;-83
2022/08/11 11:39:28;;;;;;;0.00;0.00;;;31.20;53.50;;;;;;4943285;28;20101;-82
2022/08/11 11:42:00;;;;;;;0.00;0.00;;;31.40;56.20;;;;;;4947307;28;20065;-83
2022/08/11 11:44:27;;;;;;;0.00;0.00;;;31.50;55.20;;;;;;5036975;28;20045;-82
2022/08/11 11:46:54;;;;;;;0.00;0.00;;;31.50;55.90;;;;;;5053230;28;20051;-83
2022/08/11 11:49:25;;;;;;;0.00;0.00;;;31.50;52.30;;;;;;5037492;28;20090;-82
2022/08/11 11:51:52;;;;;;;0.00;0.00;;;31.50;55.50;;;;;;5035885;28;20049;-85
2022/08/11 11:54:25;;;;;;;0.00;0.00;;;31.60;53.60;;;;;;5037001;28;20057;-82
2022/08/11 11:56:53;;;;;;;0.10;0.00;;;31.70;54.70;;;;;;5037664;28;20041;-82
2022/08/11 12:02:14;;;;;;;0.00;0.00;;;31.80;52.10;;;;;;5036539;28;20142;-82
2022/08/11 12:04:46;;;;;;;0.00;0.00;;;31.80;52.50;;;;;;5053599;28;20056;-82
2022/08/11 12:09:57;;;;;;;0.00;0.00;;;32.00;52.10;;;;;;5115749;28;20052;-82
2022/08/11 12:15:09;;;;;;;0.00;0.00;;;32.20;53.90;;;;;;5115458;28;20458;-82
2022/08/11 12:17:35;;;;;;;0.00;0.00;;;32.30;54.00;;;;;;5115192;28;20047;-79
2022/08/11 12:20:03;;;;;;;0.00;0.00;;;32.40;49.70;;;;;;5109189;28;20044;-82
2022/08/11 12:27:59;;;;;;;0.00;0.00;;;32.40;48.60;;;;;;5115454;28;20402;-82
2022/08/11 12:30:25;;;;;;;0.00;0.00;;;32.40;47.40;;;;;;5098430;28;20090;-82
2022/08/11 12:32:52;;;;;;;0.00;0.00;;;32.30;46.80;;;;;;5114674;28;20083;-82
2022/08/11 12:35:17;;;;;;;0.00;0.00;;;32.30;47.40;;;;;;5114674;28;20047;-81
2022/08/11 12:37:49;;;;;;;0.00;0.00;;;32.50;50.40;;;;;;5109280;28;20395;-80
2022/08/11 12:46:11;;;;;;;0.00;0.00;;;32.50;48.90;;;;;;5017303;28;20053;-80
2022/08/11 12:54:43;;;;;;;0.00;0.00;;;32.50;46.90;;;;;;5016391;28;20136;-81
2022/08/11 13:05:32;;;;;;;0.00;0.00;;;32.90;49.00;;;;;;5011227;28;20072;-81
2022/08/11 13:08:00;;;;;;;0.00;0.00;;;32.90;47.10;;;;;;4998412;28;20081;-81
2022/08/11 13:13:13;;;;;;;0.03;0.00;;;32.90;45.70;;;;;;5013596;28;20053;-81
2022/08/11 13:15:40;;;;;;;0.00;0.00;;;32.90;48.20;;;;;;5013499;28;20053;-81
2022/08/11 13:18:09;;;;;;;0.00;0.00;;;33.00;46.40;;;;;;4996799;28;20136;-81
2022/08/11 13:20:35;;;;;;;0.00;0.00;;;33.00;47.90;;;;;;5053311;28;20075;-81
2022/08/11 13:23:02;;;;;;;0.00;0.00;;;33.20;48.20;;;;;;5074158;28;20067;-81
2022/08/11 13:25:30;;;;;;;0.00;0.00;;;33.20;47.70;;;;;;5074385;28;20052;-81
2022/08/11 13:27:57;;;;;;;0.00;0.00;;;33.20;46.60;;;;;;5074145;28;20073;-81
2022/08/11 13:33:18;;;;;;;0.00;0.00;;;32.90;46.30;;;;;;5091328;28;20048;-81
2022/08/11 13:35:50;;;;;;;0.00;0.00;;;32.90;47.10;;;;;;5089868;28;20480;-81
2022/08/11 13:38:18;;;;;;;0.00;0.00;;;33.00;48.70;;;;;;5074097;28;20380;-82
2022/08/11 13:40:45;;;;;;;0.00;0.00;;;33.10;47.80;;;;;;5074720;28;20095;-81
2022/08/11 13:43:14;;;;;;;0.00;0.00;;;33.10;46.00;;;;;;5091365;28;20143;-81
2022/08/11 13:45:41;;;;;;;0.00;0.00;;;33.00;45.40;;;;;;5091501;28;20056;-81
2022/08/11 13:48:09;;;;;;;0.00;0.00;;;33.00;46.90;;;;;;5091066;28;20384;-81
2022/08/11 13:53:22;;;;;;;0.00;0.00;;;32.90;47.30;;;;;;5112529;28;20483;-81
2022/08/11 13:55:48;;;;;;;0.00;0.00;;;32.80;46.30;;;;;;5096221;28;20046;-81
2022/08/11 13:58:15;;;;;;;0.00;0.00;;;32.80;47.30;;;;;;5113915;28;20050;-81
2022/08/11 14:00:48;;;;;;;0.00;0.00;;;32.80;46.10;;;;;;5096710;28;20055;-80
2022/08/11 14:03:16;;;;;;;0.00;0.00;;;32.80;49.00;;;;;;5113775;28;20067;-81
2022/08/11 14:05:51;;;;;;;0.05;0.00;;;32.80;48.60;;;;;;5114023;28;20134;-79
2022/08/11 14:08:25;;;;;;;0.00;0.00;;;32.90;48.30;;;;;;5113912;28;20447;-79
2022/08/11 14:13:36;;;;;;;0.00;0.00;;;32.80;46.40;;;;;;5099819;28;20491;-79
2022/08/11 14:13:41;;;;;;;0.00;0.00;;;32.70;45.40;;;;;;5117167;28;20399;-79
2022/08/11 14:16:23;;;;;;;0.00;0.00;;;32.70;47.60;;;;;;5100601;28;20043;-80
2022/08/11 14:18:54;;;;;;;0.00;0.00;;;32.70;47.80;;;;;;5100253;28;20047;-80
2022/08/11 14:24:10;;;;;;;0.00;0.00;;;32.70;44.90;;;;;;5116625;28;20066;-80
2022/08/11 14:26:42;;;;;;;0.00;0.00;;;32.70;45.40;;;;;;5100257;28;20059;-80
2022/08/11 14:29:14;;;;;;;0.00;0.00;;;32.60;45.50;;;;;;5118006;28;20108;-79
2022/08/11 14:31:47;;;;;;;0.00;0.00;;;32.60;47.70;;;;;;5100682;28;20481;-79
2022/08/11 14:34:17;;;;;;;0.00;0.00;;;32.50;46.00;;;;;;5099991;28;20043;-79
2022/08/11 14:36:46;;;;;;;0.00;0.00;;;32.50;46.90;;;;;;5099761;28;20051;-79
2022/08/11 14:39:20;;;;;;;0.00;0.00;;;32.50;45.70;;;;;;5099609;28;20052;-79
2022/08/11 14:47:21;;;;;;;0.00;0.00;;;32.50;44.80;;;;;;5116853;28;20470;-79
2022/08/11 14:49:48;;;;;;;0.00;0.00;;;32.40;46.00;;;;;;5099388;28;20064;-79
2022/08/11 14:52:16;;;;;;;0.00;0.00;;;32.30;44.90;;;;;;5099835;28;20052;-79
2022/08/11 14:57:35;;;;;;;0.25;0.10;;;32.30;47.40;;;;;;5116592;28;20047;-79
2022/08/11 15:00:03;;;;;;;0.00;0.00;;;32.30;46.40;;;;;;5098750;28;20502;-79
2022/08/11 15:05:14;;;;;;;0.00;0.00;;;32.30;46.00;;;;;;5116446;28;20040;-79
2022/08/11 15:07:41;;;;;;;0.00;0.00;;;32.20;45.50;;;;;;5114239;28;20560;-80
2022/08/11 15:10:09;;;;;;;0.00;0.00;;;32.10;46.20;;;;;;5103621;28;20491;-80
2022/08/11 15:12:38;;;;;;;0.00;0.00;;;32.00;44.60;;;;;;5098120;28;20091;-79
2022/08/11 15:18:04;;;;;;;0.00;0.00;;;31.90;46.00;;;;;;5115894;28;20051;-80
2022/08/11 15:26:04;;;;;;;0.00;0.00;;;31.70;45.80;;;;;;5116026;28;20054;-79
2022/08/11 15:45:46;;;;;;;0.00;0.00;;;31.30;46.40;;;;;;5116198;28;20548;-79
2022/08/11 15:48:12;;;;;;;0.00;0.00;;;31.20;46.60;;;;;;5105383;28;20053;-80
2022/08/11 15:50:44;;;;;;;0.00;0.00;;;31.20;47.00;;;;;;5094502;28;20056;-79
2022/08/11 15:53:31;;;;;;;0.05;0.00;;;31.10;47.20;;;;;;5095065;28;20055;-79
2022/08/11 15:55:59;;;;;;;0.00;0.00;;;31.00;46.40;;;;;;5077134;28;20051;-79
2022/08/11 16:04:10;;;;;;;0.00;0.00;;;30.80;47.60;;;;;;5094808;28;20067;-81
2022/08/11 16:07:03;;;;;;;0.00;0.00;;;30.80;48.20;;;;;;5078152;28;20054;-81
2022/08/11 16:09:34;;;;;;;0.00;0.00;;;30.70;49.10;;;;;;5094686;28;20047;-80
2022/08/11 16:12:05;;;;;;;0.00;0.00;;;30.60;49.50;;;;;;5077518;28;20491;-80
2022/08/11 16:17:26;;;;;;;0.00;0.00;;;30.50;48.90;;;;;;5094614;28;20091;-80
2022/08/11 16:19:54;;;;;;;0.00;0.00;;;30.50;49.30;;;;;;5077690;28;20040;-80
2022/08/11 16:22:41;;;;;;;0.00;0.00;;;30.40;50.00;;;;;;5094282;28;20119;-80
2022/08/11 16:25:10;;;;;;;0.00;0.00;;;30.40;48.40;;;;;;5094407;28;20051;-81
2022/08/11 16:27:40;;;;;;;0.00;0.00;;;30.30;47.90;;;;;;5077400;28;20407;-80
2022/08/11 16:30:07;;;;;;;0.00;0.00;;;30.30;49.10;;;;;;5094206;28;20048;-80
2022/08/11 16:32:35;;;;;;;0.00;0.00;;;30.20;49.20;;;;;;5093254;28;20052;-80
2022/08/11 16:40:45;;;;;;;0.10;0.00;;;30.00;49.80;;;;;;5107157;28;20058;-81
2022/08/11 16:48:49;;;;;;;0.00;0.00;;;29.80;50.50;;;;;;5102769;28;20100;-80
2022/08/11 16:51:16;;;;;;;0.00;0.00;;;29.70;51.30;;;;;;5102470;28;20112;-80
2022/08/11 16:53:44;;;;;;;0.10;0.10;;;29.60;51.30;;;;;;5098495;28;20083;-81
2022/08/11 16:56:15;;;;;;;0.10;0.10;;;29.60;52.10;;;;;;5094773;28;20173;-81
2022/08/11 17:01:26;;;;;;;0.00;0.00;;;29.50;52.50;;;;;;5093896;28;20414;-80
2022/08/11 17:18:09;;;;;;;0.00;0.00;;;29.10;53.10;;;;;;5094259;28;20048;-80
2022/08/11 17:20:37;;;;;;;0.00;0.00;;;29.00;54.70;;;;;;5076184;28;20060;-80
2022/08/11 17:25:50;;;;;;;0.10;0.10;;;28.90;52.90;;;;;;5093574;28;20048;-80
2022/08/11 17:28:18;;;;;;;0.63;0.32;;;28.80;53.00;;;;;;5093542;28;20058;-80
2022/08/11 17:36:16;;;;;;;0.00;0.00;;;28.50;54.70;;;;;;5093684;28;20048;-80
2022/08/11 17:38:43;;;;;;;0.10;0.00;;;28.50;54.20;;;;;;5093241;28;20048;-81
2022/08/11 17:49:30;;;;;;;0.00;0.00;;;28.20;55.40;;;;;;5097690;28;20100;-80
2022/08/11 18:00:28;;;;;;;0.00;0.00;;;27.80;56.00;;;;;;5019903;28;20057;-79
2022/08/11 18:05:44;;;;;;;0.00;0.00;;;27.60;55.20;;;;;;5019283;28;20049;-79
